sensor_id;sensor_type;location;lat;lon;timestamp;temperature;humidity
46283;DHT22;32017;43.700;11.820;2022-10-19T00:01:38;11.50;99.90
46283;DHT22;32017;43.700;11.820;2022-10-19T00:03:59;11.60;99.90
46283;DHT22;32017;43.700;11.820;2022-10-19T00:06:31;11.60;99.90
46283;DHT22;32017;43.700;11.820;2022-10-19T00:11:16;11.60;99.90
46283;DHT22;32017;43.700;11.820;2022-10-19T00:13:37;11.70;99.90
46283;DHT22;32017;43.700;11.820;2022-10-19T00:15:58;11.70;99.90
46283;DHT22;32017;43.700;11.820;2022-10-19T00:18:19;11.70;99.90
46283;DHT22;32017;43.700;11.820;2022-10-19T00:20:39;11.70;99.90
46283;DHT22;32017;43.700;11.820;2022-10-19T00:23:00;11.60;99.90
46283;DHT22;32017;43.700;11.820;2022-10-19T00:25:20;11.50;99.90
46283;DHT22;32017;43.700;11.820;2022-10-19T00:27:40;11.60;99.90
46283;DHT22;32017;43.700;11.820;2022-10-19T00:30:01;11.70;99.90
46283;DHT22;32017;43.700;11.820;2022-10-19T00:32:21;11.60;99.90
46283;DHT22;32017;43.700;11.820;2022-10-19T00:34:42;11.70;99.90
46283;DHT22;32017;43.700;11.820;2022-10-19T00:37:04;11.60;99.90
46283;DHT22;32017;43.700;11.820;2022-10-19T00:39:25;11.60;99.90
46283;DHT22;32017;43.700;11.820;2022-10-19T00:41:46;11.70;99.90
46283;DHT22;32017;43.700;11.820;2022-10-19T00:46:35;11.50;99.90
46283;DHT22;32017;43.700;11.820;2022-10-19T00:49:06;11.50;99.90
46283;DHT22;32017;43.700;11.820;2022-10-19T00:51:32;11.50;99.90
46283;DHT22;32017;43.700;11.820;2022-10-19T00:53:55;11.50;99.90
46283;DHT22;32017;43.700;11.820;2022-10-19T00:56:16;11.30;99.90
46283;DHT22;32017;43.700;11.820;2022-10-19T00:58:38;11.10;99.90
46283;DHT22;32017;43.700;11.820;2022-10-19T01:01:02;11.10;99.90
46283;DHT22;32017;43.700;11.820;2022-10-19T01:03:24;11.00;99.90
46283;DHT22;32017;43.700;11.820;2022-10-19T01:05:44;10.90;99.90
46283;DHT22;32017;43.700;11.820;2022-10-19T01:08:06;10.90;99.90
46283;DHT22;32017;43.700;11.820;2022-10-19T01:10:50;10.90;99.90
46283;DHT22;32017;43.700;11.820;2022-10-19T01:16:45;11.00;99.90
46283;DHT22;32017;43.700;11.820;2022-10-19T01:18:44;11.00;99.90
46283;DHT22;32017;43.700;11.820;2022-10-19T01:21:21;11.00;99.90
46283;DHT22;32017;43.700;11.820;2022-10-19T01:23:54;10.80;99.90
46283;DHT22;32017;43.700;11.820;2022-10-19T01:32:53;10.70;99.90
46283;DHT22;32017;43.700;11.820;2022-10-19T01:37:47;10.60;99.90
46283;DHT22;32017;43.700;11.820;2022-10-19T01:40:17;10.70;99.90
46283;DHT22;32017;43.700;11.820;2022-10-19T01:42:52;10.80;99.90
46283;DHT22;32017;43.700;11.820;2022-10-19T01:45:35;10.70;99.90
46283;DHT22;32017;43.700;11.820;2022-10-19T01:51:19;10.70;99.90
46283;DHT22;32017;43.700;11.820;2022-10-19T01:53:20;10.60;99.90
46283;DHT22;32017;43.700;11.820;2022-10-19T01:55:42;10.60;99.90
46283;DHT22;32017;43.700;11.820;2022-10-19T01:58:06;10.60;99.90
46283;DHT22;32017;43.700;11.820;2022-10-19T02:00:30;10.60;99.90
46283;DHT22;32017;43.700;11.820;2022-10-19T02:02:55;10.60;99.90
46283;DHT22;32017;43.700;11.820;2022-10-19T02:05:19;10.60;99.90
46283;DHT22;32017;43.700;11.820;2022-10-19T02:07:44;10.60;99.90
46283;DHT22;32017;43.700;11.820;2022-10-19T02:10:06;10.60;99.90
46283;DHT22;32017;43.700;11.820;2022-10-19T02:12:28;10.60;99.90
46283;DHT22;32017;43.700;11.820;2022-10-19T02:14:52;10.60;99.90
46283;DHT22;32017;43.700;11.820;2022-10-19T02:17:24;10.70;99.90
46283;DHT22;32017;43.700;11.820;2022-10-19T02:19:46;10.80;99.90
46283;DHT22;32017;43.700;11.820;2022-10-19T02:22:08;10.70;99.90
46283;DHT22;32017;43.700;11.820;2022-10-19T02:24:28;10.50;99.90
46283;DHT22;32017;43.700;11.820;2022-10-19T02:26:49;10.50;99.90
46283;DHT22;32017;43.700;11.820;2022-10-19T02:29:10;10.70;99.90
46283;DHT22;32017;43.700;11.820;2022-10-19T02:31:33;10.60;99.90
46283;DHT22;32017;43.700;11.820;2022-10-19T02:33:54;10.50;99.90
46283;DHT22;32017;43.700;11.820;2022-10-19T02:36:14;10.40;99.90
46283;DHT22;32017;43.700;11.820;2022-10-19T02:38:35;10.20;99.90
46283;DHT22;32017;43.700;11.820;2022-10-19T02:41:17;10.20;99.90
46283;DHT22;32017;43.700;11.820;2022-10-19T02:43:40;10.20;99.90
46283;DHT22;32017;43.700;11.820;2022-10-19T02:46:07;10.30;99.90
46283;DHT22;32017;43.700;11.820;2022-10-19T02:48:31;10.30;99.90
46283;DHT22;32017;43.700;11.820;2022-10-19T02:50:52;10.20;99.90
46283;DHT22;32017;43.700;11.820;2022-10-19T02:53:13;10.10;99.90
46283;DHT22;32017;43.700;11.820;2022-10-19T02:55:34;9.90;99.90
46283;DHT22;32017;43.700;11.820;2022-10-19T02:57:55;10.10;99.90
46283;DHT22;32017;43.700;11.820;2022-10-19T03:00:16;10.20;99.90
46283;DHT22;32017;43.700;11.820;2022-10-19T03:02:37;10.40;99.90
46283;DHT22;32017;43.700;11.820;2022-10-19T03:04:57;10.50;99.90
46283;DHT22;32017;43.700;11.820;2022-10-19T03:07:19;10.30;99.90
46283;DHT22;32017;43.700;11.820;2022-10-19T03:09:41;10.10;99.90
46283;DHT22;32017;43.700;11.820;2022-10-19T03:12:02;10.00;99.90
46283;DHT22;32017;43.700;11.820;2022-10-19T03:14:22;9.80;99.90
46283;DHT22;32017;43.700;11.820;2022-10-19T03:16:43;9.80;99.90
46283;DHT22;32017;43.700;11.820;2022-10-19T03:19:03;9.90;99.90
46283;DHT22;32017;43.700;11.820;2022-10-19T03:21:24;9.90;99.90
46283;DHT22;32017;43.700;11.820;2022-10-19T03:23:44;9.80;99.90
46283;DHT22;32017;43.700;11.820;2022-10-19T03:26:06;9.90;99.90
46283;DHT22;32017;43.700;11.820;2022-10-19T03:28:32;9.90;99.90
46283;DHT22;32017;43.700;11.820;2022-10-19T03:30:53;9.80;99.90
46283;DHT22;32017;43.700;11.820;2022-10-19T03:33:13;9.90;99.90
46283;DHT22;32017;43.700;11.820;2022-10-19T03:35:33;10.00;99.90
46283;DHT22;32017;43.700;11.820;2022-10-19T03:37:54;10.00;99.90
46283;DHT22;32017;43.700;11.820;2022-10-19T03:40:15;10.10;99.90
46283;DHT22;32017;43.700;11.820;2022-10-19T03:42:36;10.10;99.90
46283;DHT22;32017;43.700;11.820;2022-10-19T03:44:56;10.00;99.90
46283;DHT22;32017;43.700;11.820;2022-10-19T03:47:17;10.00;99.90
46283;DHT22;32017;43.700;11.820;2022-10-19T03:49:37;9.90;99.90
46283;DHT22;32017;43.700;11.820;2022-10-19T03:52:00;9.80;99.90
46283;DHT22;32017;43.700;11.820;2022-10-19T03:54:20;9.70;99.90
46283;DHT22;32017;43.700;11.820;2022-10-19T03:56:46;9.60;99.90
46283;DHT22;32017;43.700;11.820;2022-10-19T03:59:07;9.40;99.90
46283;DHT22;32017;43.700;11.820;2022-10-19T04:03:58;9.40;99.90
46283;DHT22;32017;43.700;11.820;2022-10-19T04:06:24;9.40;99.90
46283;DHT22;32017;43.700;11.820;2022-10-19T04:08:47;9.30;99.90
46283;DHT22;32017;43.700;11.820;2022-10-19T04:11:11;9.30;99.90
46283;DHT22;32017;43.700;11.820;2022-10-19T04:13:33;9.20;99.90
46283;DHT22;32017;43.700;11.820;2022-10-19T04:15:54;9.20;99.90
46283;DHT22;32017;43.700;11.820;2022-10-19T04:18:14;9.20;99.90
46283;DHT22;32017;43.700;11.820;2022-10-19T04:20:35;9.20;99.90
46283;DHT22;32017;43.700;11.820;2022-10-19T04:22:58;9.20;99.90
46283;DHT22;32017;43.700;11.820;2022-10-19T04:25:18;9.20;99.90
46283;DHT22;32017;43.700;11.820;2022-10-19T04:27:39;9.20;99.90
46283;DHT22;32017;43.700;11.820;2022-10-19T04:30:00;9.20;99.90
46283;DHT22;32017;43.700;11.820;2022-10-19T04:32:20;9.20;99.90
46283;DHT22;32017;43.700;11.820;2022-10-19T04:34:41;9.20;99.90
46283;DHT22;32017;43.700;11.820;2022-10-19T04:37:01;9.20;99.90
46283;DHT22;32017;43.700;11.820;2022-10-19T04:39:22;9.30;99.90
46283;DHT22;32017;43.700;11.820;2022-10-19T04:41:42;9.20;99.90
46283;DHT22;32017;43.700;11.820;2022-10-19T04:44:04;9.20;99.90
46283;DHT22;32017;43.700;11.820;2022-10-19T04:46:27;9.10;99.90
46283;DHT22;32017;43.700;11.820;2022-10-19T04:48:48;9.20;99.90
46283;DHT22;32017;43.700;11.820;2022-10-19T04:51:09;9.30;99.90
46283;DHT22;32017;43.700;11.820;2022-10-19T04:53:30;9.20;99.90
46283;DHT22;32017;43.700;11.820;2022-10-19T04:55:51;9.30;99.90
46283;DHT22;32017;43.700;11.820;2022-10-19T04:58:11;9.20;99.90
46283;DHT22;32017;43.700;11.820;2022-10-19T05:00:31;9.10;99.90
46283;DHT22;32017;43.700;11.820;2022-10-19T05:02:52;9.10;99.90
46283;DHT22;32017;43.700;11.820;2022-10-19T05:05:13;9.10;99.90
46283;DHT22;32017;43.700;11.820;2022-10-19T05:07:34;9.20;99.90
46283;DHT22;32017;43.700;11.820;2022-10-19T05:09:55;9.30;99.90
46283;DHT22;32017;43.700;11.820;2022-10-19T05:12:15;9.30;99.90
46283;DHT22;32017;43.700;11.820;2022-10-19T05:14:36;9.30;99.90
46283;DHT22;32017;43.700;11.820;2022-10-19T05:17:00;9.30;99.90
46283;DHT22;32017;43.700;11.820;2022-10-19T05:19:21;9.30;99.90
46283;DHT22;32017;43.700;11.820;2022-10-19T05:21:42;9.40;99.90
46283;DHT22;32017;43.700;11.820;2022-10-19T05:24:02;9.40;99.90
46283;DHT22;32017;43.700;11.820;2022-10-19T05:26:24;9.40;99.90
46283;DHT22;32017;43.700;11.820;2022-10-19T05:28:49;9.40;99.90
46283;DHT22;32017;43.700;11.820;2022-10-19T05:31:18;9.50;99.90
46283;DHT22;32017;43.700;11.820;2022-10-19T05:33:39;9.40;99.90
46283;DHT22;32017;43.700;11.820;2022-10-19T05:38:29;9.50;99.90
46283;DHT22;32017;43.700;11.820;2022-10-19T05:40:50;9.50;99.90
46283;DHT22;32017;43.700;11.820;2022-10-19T05:43:13;9.50;99.90
46283;DHT22;32017;43.700;11.820;2022-10-19T05:45:34;9.50;99.90
46283;DHT22;32017;43.700;11.820;2022-10-19T05:47:54;9.40;99.90
46283;DHT22;32017;43.700;11.820;2022-10-19T05:50:15;9.40;99.90
46283;DHT22;32017;43.700;11.820;2022-10-19T05:52:35;9.40;99.90
46283;DHT22;32017;43.700;11.820;2022-10-19T05:54:56;9.30;99.90
46283;DHT22;32017;43.700;11.820;2022-10-19T05:57:17;9.20;99.90
46283;DHT22;32017;43.700;11.820;2022-10-19T05:59:38;9.10;99.90
46283;DHT22;32017;43.700;11.820;2022-10-19T06:01:59;9.00;99.90
46283;DHT22;32017;43.700;11.820;2022-10-19T06:04:19;8.80;99.90
46283;DHT22;32017;43.700;11.820;2022-10-19T06:06:41;8.80;99.90
46283;DHT22;32017;43.700;11.820;2022-10-19T06:09:03;8.90;99.90
46283;DHT22;32017;43.700;11.820;2022-10-19T06:11:26;8.80;99.90
46283;DHT22;32017;43.700;11.820;2022-10-19T06:13:48;9.00;99.90
46283;DHT22;32017;43.700;11.820;2022-10-19T06:16:12;9.00;99.90
46283;DHT22;32017;43.700;11.820;2022-10-19T06:18:32;9.20;99.90
46283;DHT22;32017;43.700;11.820;2022-10-19T06:20:53;9.20;99.90
46283;DHT22;32017;43.700;11.820;2022-10-19T06:23:14;9.20;99.90
46283;DHT22;32017;43.700;11.820;2022-10-19T06:25:35;9.30;99.90
46283;DHT22;32017;43.700;11.820;2022-10-19T06:27:56;9.20;99.90
46283;DHT22;32017;43.700;11.820;2022-10-19T06:30:17;9.10;99.90
46283;DHT22;32017;43.700;11.820;2022-10-19T06:32:38;9.00;99.90
46283;DHT22;32017;43.700;11.820;2022-10-19T06:34:58;9.00;99.90
46283;DHT22;32017;43.700;11.820;2022-10-19T06:37:19;9.00;99.90
46283;DHT22;32017;43.700;11.820;2022-10-19T06:39:39;9.10;99.90
46283;DHT22;32017;43.700;11.820;2022-10-19T06:42:00;9.10;99.90
46283;DHT22;32017;43.700;11.820;2022-10-19T06:44:20;9.20;99.90
46283;DHT22;32017;43.700;11.820;2022-10-19T06:46:41;9.20;99.90
46283;DHT22;32017;43.700;11.820;2022-10-19T06:49:02;9.30;99.90
46283;DHT22;32017;43.700;11.820;2022-10-19T06:51:24;9.50;99.90
46283;DHT22;32017;43.700;11.820;2022-10-19T06:53:45;9.60;99.90
46283;DHT22;32017;43.700;11.820;2022-10-19T06:56:06;9.80;99.90
46283;DHT22;32017;43.700;11.820;2022-10-19T06:58:27;9.90;99.90
46283;DHT22;32017;43.700;11.820;2022-10-19T07:00:57;10.00;99.90
46283;DHT22;32017;43.700;11.820;2022-10-19T07:03:18;10.10;99.90
46283;DHT22;32017;43.700;11.820;2022-10-19T07:05:38;10.20;99.90
46283;DHT22;32017;43.700;11.820;2022-10-19T07:07:59;10.30;99.90
46283;DHT22;32017;43.700;11.820;2022-10-19T07:10:20;10.40;99.90
46283;DHT22;32017;43.700;11.820;2022-10-19T07:12:41;10.60;99.90
46283;DHT22;32017;43.700;11.820;2022-10-19T07:15:01;10.50;99.90
46283;DHT22;32017;43.700;11.820;2022-10-19T07:17:23;10.50;99.90
46283;DHT22;32017;43.700;11.820;2022-10-19T07:19:43;10.60;99.90
46283;DHT22;32017;43.700;11.820;2022-10-19T07:22:04;10.60;99.90
46283;DHT22;32017;43.700;11.820;2022-10-19T07:24:24;10.80;99.90
46283;DHT22;32017;43.700;11.820;2022-10-19T07:26:45;10.90;99.90
46283;DHT22;32017;43.700;11.820;2022-10-19T07:29:05;11.00;99.90
46283;DHT22;32017;43.700;11.820;2022-10-19T07:31:28;11.10;99.90
46283;DHT22;32017;43.700;11.820;2022-10-19T07:33:54;11.20;99.90
46283;DHT22;32017;43.700;11.820;2022-10-19T07:36:15;11.30;99.90
46283;DHT22;32017;43.700;11.820;2022-10-19T07:38:36;11.50;99.90
46283;DHT22;32017;43.700;11.820;2022-10-19T07:41:05;11.50;99.90
46283;DHT22;32017;43.700;11.820;2022-10-19T07:43:26;11.50;99.90
46283;DHT22;32017;43.700;11.820;2022-10-19T07:45:46;11.60;99.90
46283;DHT22;32017;43.700;11.820;2022-10-19T07:48:07;11.70;99.90
46283;DHT22;32017;43.700;11.820;2022-10-19T07:50:29;11.70;99.90
46283;DHT22;32017;43.700;11.820;2022-10-19T07:52:53;11.80;99.90
46283;DHT22;32017;43.700;11.820;2022-10-19T07:55:14;11.90;99.90
46283;DHT22;32017;43.700;11.820;2022-10-19T07:57:35;12.00;99.90
46283;DHT22;32017;43.700;11.820;2022-10-19T07:59:55;12.00;99.90
46283;DHT22;32017;43.700;11.820;2022-10-19T08:02:17;12.20;99.90
46283;DHT22;32017;43.700;11.820;2022-10-19T08:04:39;12.30;99.90
46283;DHT22;32017;43.700;11.820;2022-10-19T08:07:20;12.50;99.90
46283;DHT22;32017;43.700;11.820;2022-10-19T08:09:40;12.60;99.90
46283;DHT22;32017;43.700;11.820;2022-10-19T08:12:12;12.70;99.90
46283;DHT22;32017;43.700;11.820;2022-10-19T08:14:34;12.90;99.90
46283;DHT22;32017;43.700;11.820;2022-10-19T08:16:55;13.00;99.90
46283;DHT22;32017;43.700;11.820;2022-10-19T08:19:15;13.10;99.90
46283;DHT22;32017;43.700;11.820;2022-10-19T08:21:38;13.20;99.90
46283;DHT22;32017;43.700;11.820;2022-10-19T08:23:59;13.30;99.90
46283;DHT22;32017;43.700;11.820;2022-10-19T08:26:20;13.40;99.90
46283;DHT22;32017;43.700;11.820;2022-10-19T08:28:41;13.60;99.90
46283;DHT22;32017;43.700;11.820;2022-10-19T08:31:13;13.60;99.90
46283;DHT22;32017;43.700;11.820;2022-10-19T08:33:34;13.70;99.90
46283;DHT22;32017;43.700;11.820;2022-10-19T08:35:55;13.90;99.90
46283;DHT22;32017;43.700;11.820;2022-10-19T08:38:15;14.00;99.90
46283;DHT22;32017;43.700;11.820;2022-10-19T08:40:36;14.10;99.90
46283;DHT22;32017;43.700;11.820;2022-10-19T08:43:04;14.20;99.90
46283;DHT22;32017;43.700;11.820;2022-10-19T08:45:45;14.30;99.90
46283;DHT22;32017;43.700;11.820;2022-10-19T08:48:24;14.40;99.90
46283;DHT22;32017;43.700;11.820;2022-10-19T08:50:46;14.50;99.90
46283;DHT22;32017;43.700;11.820;2022-10-19T08:53:15;14.60;99.90
46283;DHT22;32017;43.700;11.820;2022-10-19T08:55:41;14.70;99.90
46283;DHT22;32017;43.700;11.820;2022-10-19T08:58:26;14.80;99.90
46283;DHT22;32017;43.700;11.820;2022-10-19T09:00:57;15.00;99.90
46283;DHT22;32017;43.700;11.820;2022-10-19T09:03:32;15.10;99.90
46283;DHT22;32017;43.700;11.820;2022-10-19T09:06:23;15.20;99.90
46283;DHT22;32017;43.700;11.820;2022-10-19T09:08:47;15.40;99.90
46283;DHT22;32017;43.700;11.820;2022-10-19T09:11:09;15.60;99.90
46283;DHT22;32017;43.700;11.820;2022-10-19T09:13:39;15.70;99.90
46283;DHT22;32017;43.700;11.820;2022-10-19T09:16:21;15.90;99.90
46283;DHT22;32017;43.700;11.820;2022-10-19T09:18:44;16.10;99.90
46283;DHT22;32017;43.700;11.820;2022-10-19T09:21:22;16.30;99.90
46283;DHT22;32017;43.700;11.820;2022-10-19T09:24:04;16.50;99.90
46283;DHT22;32017;43.700;11.820;2022-10-19T09:26:29;16.70;99.90
46283;DHT22;32017;43.700;11.820;2022-10-19T09:28:54;16.80;99.90
46283;DHT22;32017;43.700;11.820;2022-10-19T09:31:30;16.90;99.90
46283;DHT22;32017;43.700;11.820;2022-10-19T09:34:07;17.10;99.90
46283;DHT22;32017;43.700;11.820;2022-10-19T09:36:39;17.30;99.90
46283;DHT22;32017;43.700;11.820;2022-10-19T09:39:16;17.50;99.90
46283;DHT22;32017;43.700;11.820;2022-10-19T09:41:50;17.70;99.90
46283;DHT22;32017;43.700;11.820;2022-10-19T09:44:12;17.90;99.90
46283;DHT22;32017;43.700;11.820;2022-10-19T09:46:41;18.00;99.90
46283;DHT22;32017;43.700;11.820;2022-10-19T09:49:09;18.30;99.90
46283;DHT22;32017;43.700;11.820;2022-10-19T09:51:49;18.50;99.90
46283;DHT22;32017;43.700;11.820;2022-10-19T09:54:39;18.70;99.90
46283;DHT22;32017;43.700;11.820;2022-10-19T09:57:00;18.90;99.90
46283;DHT22;32017;43.700;11.820;2022-10-19T09:59:22;19.20;99.90
46283;DHT22;32017;43.700;11.820;2022-10-19T10:01:43;19.30;99.90
46283;DHT22;32017;43.700;11.820;2022-10-19T10:04:06;19.60;99.90
46283;DHT22;32017;43.700;11.820;2022-10-19T10:06:28;19.70;99.90
46283;DHT22;32017;43.700;11.820;2022-10-19T10:08:53;19.90;99.90
46283;DHT22;32017;43.700;11.820;2022-10-19T10:11:24;20.10;99.90
46283;DHT22;32017;43.700;11.820;2022-10-19T10:13:52;20.20;99.90
46283;DHT22;32017;43.700;11.820;2022-10-19T10:16:15;20.40;99.90
46283;DHT22;32017;43.700;11.820;2022-10-19T10:18:54;20.70;99.90
46283;DHT22;32017;43.700;11.820;2022-10-19T10:24:19;21.60;99.90
46283;DHT22;32017;43.700;11.820;2022-10-19T10:26:43;22.00;99.90
46283;DHT22;32017;43.700;11.820;2022-10-19T10:29:19;22.10;99.90
46283;DHT22;32017;43.700;11.820;2022-10-19T10:31:40;22.30;99.90
46283;DHT22;32017;43.700;11.820;2022-10-19T10:34:01;22.20;99.90
46283;DHT22;32017;43.700;11.820;2022-10-19T10:36:42;22.10;99.90
46283;DHT22;32017;43.700;11.820;2022-10-19T10:39:07;22.10;99.90
46283;DHT22;32017;43.700;11.820;2022-10-19T10:41:40;22.50;99.90
46283;DHT22;32017;43.700;11.820;2022-10-19T10:44:06;23.00;99.90
46283;DHT22;32017;43.700;11.820;2022-10-19T10:46:33;23.20;99.90
46283;DHT22;32017;43.700;11.820;2022-10-19T10:48:57;23.60;99.90
46283;DHT22;32017;43.700;11.820;2022-10-19T10:51:23;23.80;99.90
46283;DHT22;32017;43.700;11.820;2022-10-19T10:53:45;23.90;99.90
46283;DHT22;32017;43.700;11.820;2022-10-19T10:56:27;24.10;99.90
46283;DHT22;32017;43.700;11.820;2022-10-19T10:59:14;24.50;99.90
46283;DHT22;32017;43.700;11.820;2022-10-19T11:01:42;24.10;99.90
46283;DHT22;32017;43.700;11.820;2022-10-19T11:04:08;23.90;99.90
46283;DHT22;32017;43.700;11.820;2022-10-19T11:06:34;24.20;99.90
46283;DHT22;32017;43.700;11.820;2022-10-19T11:09:10;24.40;99.90
46283;DHT22;32017;43.700;11.820;2022-10-19T11:11:40;24.90;99.90
46283;DHT22;32017;43.700;11.820;2022-10-19T11:16:52;24.90;99.90
46283;DHT22;32017;43.700;11.820;2022-10-19T11:19:28;24.90;99.90
46283;DHT22;32017;43.700;11.820;2022-10-19T11:24:44;24.80;99.90
46283;DHT22;32017;43.700;11.820;2022-10-19T11:32:31;25.50;99.90
46283;DHT22;32017;43.700;11.820;2022-10-19T11:43:37;25.50;99.70
46283;DHT22;32017;43.700;11.820;2022-10-19T11:46:17;25.90;99.90
46283;DHT22;32017;43.700;11.820;2022-10-19T11:56:15;26.70;98.30
46283;DHT22;32017;43.700;11.820;2022-10-19T12:01:21;26.60;97.90
46283;DHT22;32017;43.700;11.820;2022-10-19T12:04:18;26.70;98.80
46283;DHT22;32017;43.700;11.820;2022-10-19T12:13:07;26.70;99.40
46283;DHT22;32017;43.700;11.820;2022-10-19T12:15:26;26.90;97.90
46283;DHT22;32017;43.700;11.820;2022-10-19T12:17:49;26.40;96.90
46283;DHT22;32017;43.700;11.820;2022-10-19T12:20:34;25.90;98.50
46283;DHT22;32017;43.700;11.820;2022-10-19T12:22:58;26.30;97.50
46283;DHT22;32017;43.700;11.820;2022-10-19T12:25:20;26.40;96.80
46283;DHT22;32017;43.700;11.820;2022-10-19T12:27:41;26.50;98.20
46283;DHT22;32017;43.700;11.820;2022-10-19T12:30:14;26.70;97.30
46283;DHT22;32017;43.700;11.820;2022-10-19T12:33:11;26.70;96.40
46283;DHT22;32017;43.700;11.820;2022-10-19T12:41:28;26.90;96.50
46283;DHT22;32017;43.700;11.820;2022-10-19T12:48:42;26.90;95.90
46283;DHT22;32017;43.700;11.820;2022-10-19T12:51:06;26.80;96.20
46283;DHT22;32017;43.700;11.820;2022-10-19T12:53:38;26.90;96.10
46283;DHT22;32017;43.700;11.820;2022-10-19T12:56:03;27.00;96.20
46283;DHT22;32017;43.700;11.820;2022-10-19T12:58:25;27.20;96.70
46283;DHT22;32017;43.700;11.820;2022-10-19T13:01:04;27.40;95.60
46283;DHT22;32017;43.700;11.820;2022-10-19T13:03:33;27.30;96.00
46283;DHT22;32017;43.700;11.820;2022-10-19T13:05:59;27.20;95.10
46283;DHT22;32017;43.700;11.820;2022-10-19T13:09:08;27.10;94.90
46283;DHT22;32017;43.700;11.820;2022-10-19T13:11:11;27.30;94.70
46283;DHT22;32017;43.700;11.820;2022-10-19T13:26:44;27.40;95.70
46283;DHT22;32017;43.700;11.820;2022-10-19T13:29:23;27.20;96.00
46283;DHT22;32017;43.700;11.820;2022-10-19T13:31:44;27.10;95.90
46283;DHT22;32017;43.700;11.820;2022-10-19T13:34:09;26.80;94.30
46283;DHT22;32017;43.700;11.820;2022-10-19T13:36:30;26.60;95.00
46283;DHT22;32017;43.700;11.820;2022-10-19T13:41:26;27.10;94.10
46283;DHT22;32017;43.700;11.820;2022-10-19T14:00:19;27.00;95.20
46283;DHT22;32017;43.700;11.820;2022-10-19T14:11:38;26.70;94.70
46283;DHT22;32017;43.700;11.820;2022-10-19T14:16:30;26.60;94.80
46283;DHT22;32017;43.700;11.820;2022-10-19T14:18:54;26.70;95.30
46283;DHT22;32017;43.700;11.820;2022-10-19T14:21:31;26.80;95.30
46283;DHT22;32017;43.700;11.820;2022-10-19T14:23:51;26.80;95.10
46283;DHT22;32017;43.700;11.820;2022-10-19T14:26:19;26.30;94.80
46283;DHT22;32017;43.700;11.820;2022-10-19T14:28:41;26.10;95.10
46283;DHT22;32017;43.700;11.820;2022-10-19T14:31:07;26.30;95.00
46283;DHT22;32017;43.700;11.820;2022-10-19T14:33:31;26.30;95.20
46283;DHT22;32017;43.700;11.820;2022-10-19T14:35:53;26.20;95.60
46283;DHT22;32017;43.700;11.820;2022-10-19T14:38:37;26.10;95.70
46283;DHT22;32017;43.700;11.820;2022-10-19T14:41:00;26.10;95.80
46283;DHT22;32017;43.700;11.820;2022-10-19T14:43:28;26.00;95.00
46283;DHT22;32017;43.700;11.820;2022-10-19T14:46:27;26.00;95.70
46283;DHT22;32017;43.700;11.820;2022-10-19T14:48:49;25.70;95.90
46283;DHT22;32017;43.700;11.820;2022-10-19T14:51:35;25.50;95.20
46283;DHT22;32017;43.700;11.820;2022-10-19T14:54:07;25.40;95.90
46283;DHT22;32017;43.700;11.820;2022-10-19T15:01:11;25.50;96.30
46283;DHT22;32017;43.700;11.820;2022-10-19T15:03:32;25.50;96.40
46283;DHT22;32017;43.700;11.820;2022-10-19T15:06:05;25.30;96.60
46283;DHT22;32017;43.700;11.820;2022-10-19T15:08:38;25.20;96.80
46283;DHT22;32017;43.700;11.820;2022-10-19T15:11:02;25.20;96.50
46283;DHT22;32017;43.700;11.820;2022-10-19T15:13:31;25.00;96.40
46283;DHT22;32017;43.700;11.820;2022-10-19T15:15:53;24.90;96.90
46283;DHT22;32017;43.700;11.820;2022-10-19T15:18:15;24.90;96.90
46283;DHT22;32017;43.700;11.820;2022-10-19T15:21:03;24.70;97.00
46283;DHT22;32017;43.700;11.820;2022-10-19T15:26:02;24.70;97.00
46283;DHT22;32017;43.700;11.820;2022-10-19T15:28:37;24.60;97.30
46283;DHT22;32017;43.700;11.820;2022-10-19T15:31:11;24.60;97.60
46283;DHT22;32017;43.700;11.820;2022-10-19T15:33:43;24.50;97.90
46283;DHT22;32017;43.700;11.820;2022-10-19T15:36:06;24.40;98.00
46283;DHT22;32017;43.700;11.820;2022-10-19T15:38:29;24.10;97.60
46283;DHT22;32017;43.700;11.820;2022-10-19T15:40:59;23.90;98.20
46283;DHT22;32017;43.700;11.820;2022-10-19T15:45:59;23.70;98.60
46283;DHT22;32017;43.700;11.820;2022-10-19T15:51:00;23.40;99.10
46283;DHT22;32017;43.700;11.820;2022-10-19T15:53:21;23.40;99.30
46283;DHT22;32017;43.700;11.820;2022-10-19T15:55:42;23.30;99.50
46283;DHT22;32017;43.700;11.820;2022-10-19T15:58:03;23.10;99.90
46283;DHT22;32017;43.700;11.820;2022-10-19T16:00:24;22.90;99.90
46283;DHT22;32017;43.700;11.820;2022-10-19T16:02:45;22.70;99.90
46283;DHT22;32017;43.700;11.820;2022-10-19T16:05:06;22.60;99.90
46283;DHT22;32017;43.700;11.820;2022-10-19T16:07:30;22.30;99.90
46283;DHT22;32017;43.700;11.820;2022-10-19T16:09:52;22.10;99.90
46283;DHT22;32017;43.700;11.820;2022-10-19T16:12:14;21.90;99.90
46283;DHT22;32017;43.700;11.820;2022-10-19T16:14:35;21.40;99.90
46283;DHT22;32017;43.700;11.820;2022-10-19T16:16:56;21.10;99.90
46283;DHT22;32017;43.700;11.820;2022-10-19T16:19:19;20.80;99.90
46283;DHT22;32017;43.700;11.820;2022-10-19T16:21:40;20.60;99.90
46283;DHT22;32017;43.700;11.820;2022-10-19T16:24:01;20.50;99.90
46283;DHT22;32017;43.700;11.820;2022-10-19T16:26:21;20.30;99.90
46283;DHT22;32017;43.700;11.820;2022-10-19T16:28:43;20.30;99.90
46283;DHT22;32017;43.700;11.820;2022-10-19T16:31:04;20.30;99.90
46283;DHT22;32017;43.700;11.820;2022-10-19T16:33:24;20.20;99.90
46283;DHT22;32017;43.700;11.820;2022-10-19T16:35:45;20.20;99.90
46283;DHT22;32017;43.700;11.820;2022-10-19T16:38:05;19.90;99.90
46283;DHT22;32017;43.700;11.820;2022-10-19T16:40:26;19.80;99.90
46283;DHT22;32017;43.700;11.820;2022-10-19T16:42:47;19.50;99.90
46283;DHT22;32017;43.700;11.820;2022-10-19T16:45:08;19.30;99.90
46283;DHT22;32017;43.700;11.820;2022-10-19T16:47:29;19.10;99.90
46283;DHT22;32017;43.700;11.820;2022-10-19T16:50:00;18.90;99.90
46283;DHT22;32017;43.700;11.820;2022-10-19T16:52:21;18.80;99.90
46283;DHT22;32017;43.700;11.820;2022-10-19T16:54:41;18.70;99.90
46283;DHT22;32017;43.700;11.820;2022-10-19T16:57:02;18.50;99.90
46283;DHT22;32017;43.700;11.820;2022-10-19T16:59:28;18.50;99.90
46283;DHT22;32017;43.700;11.820;2022-10-19T17:01:49;18.60;99.90
46283;DHT22;32017;43.700;11.820;2022-10-19T17:04:11;18.60;99.90
46283;DHT22;32017;43.700;11.820;2022-10-19T17:06:32;18.50;99.90
46283;DHT22;32017;43.700;11.820;2022-10-19T17:08:55;18.40;99.90
46283;DHT22;32017;43.700;11.820;2022-10-19T17:11:37;18.40;99.90
46283;DHT22;32017;43.700;11.820;2022-10-19T17:14:06;18.30;99.90
46283;DHT22;32017;43.700;11.820;2022-10-19T17:16:28;18.30;99.90